sensor_id;sensor_type;location;lat;lon;timestamp;P1;durP1;ratioP1;P2;durP2;ratioP2
41530;SDS011;58990;46.284;13.126;2022-10-16T00:00:35;42.83;;;25.33;;
41530;SDS011;58990;46.284;13.126;2022-10-16T00:03:02;43.17;;;24.77;;
41530;SDS011;58990;46.284;13.126;2022-10-16T00:05:30;39.63;;;21.55;;
41530;SDS011;58990;46.284;13.126;2022-10-16T00:07:56;41.45;;;22.67;;
41530;SDS011;58990;46.284;13.126;2022-10-16T00:10:21;39.78;;;23.27;;
41530;SDS011;58990;46.284;13.126;2022-10-16T00:12:47;45.10;;;23.90;;
41530;SDS011;58990;46.284;13.126;2022-10-16T00:15:12;45.38;;;24.23;;
41530;SDS011;58990;46.284;13.126;2022-10-16T00:17:38;40.80;;;23.33;;
41530;SDS011;58990;46.284;13.126;2022-10-16T00:20:04;42.10;;;21.17;;
41530;SDS011;58990;46.284;13.126;2022-10-16T00:22:30;38.72;;;22.40;;
41530;SDS011;58990;46.284;13.126;2022-10-16T00:24:55;39.55;;;21.95;;
41530;SDS011;58990;46.284;13.126;2022-10-16T00:27:21;34.90;;;19.42;;
41530;SDS011;58990;46.284;13.126;2022-10-16T00:29:49;38.95;;;20.27;;
41530;SDS011;58990;46.284;13.126;2022-10-16T00:32:16;39.03;;;21.13;;
41530;SDS011;58990;46.284;13.126;2022-10-16T00:34:42;34.05;;;20.23;;
41530;SDS011;58990;46.284;13.126;2022-10-16T00:37:07;39.33;;;20.95;;
41530;SDS011;58990;46.284;13.126;2022-10-16T00:39:33;35.75;;;20.67;;
41530;SDS011;58990;46.284;13.126;2022-10-16T00:41:58;31.42;;;19.05;;
41530;SDS011;58990;46.284;13.126;2022-10-16T00:47:19;37.28;;;20.58;;
41530;SDS011;58990;46.284;13.126;2022-10-16T01:05:39;33.17;;;19.98;;
41530;SDS011;58990;46.284;13.126;2022-10-16T01:08:18;36.20;;;19.85;;
41530;SDS011;58990;46.284;13.126;2022-10-16T01:10:57;36.53;;;20.08;;
41530;SDS011;58990;46.284;13.126;2022-10-16T01:13:27;33.38;;;19.65;;
41530;SDS011;58990;46.284;13.126;2022-10-16T01:16:03;34.60;;;19.88;;
41530;SDS011;58990;46.284;13.126;2022-10-16T01:18:34;37.55;;;19.88;;
41530;SDS011;58990;46.284;13.126;2022-10-16T01:31:42;31.30;;;17.52;;
41530;SDS011;58990;46.284;13.126;2022-10-16T01:34:15;35.60;;;21.58;;
41530;SDS011;58990;46.284;13.126;2022-10-16T01:36:47;37.92;;;20.40;;
41530;SDS011;58990;46.284;13.126;2022-10-16T01:39:19;35.22;;;19.85;;
41530;SDS011;58990;46.284;13.126;2022-10-16T01:41:51;33.55;;;18.52;;
41530;SDS011;58990;46.284;13.126;2022-10-16T01:44:25;35.42;;;20.13;;
41530;SDS011;58990;46.284;13.126;2022-10-16T01:46:53;35.88;;;20.20;;
41530;SDS011;58990;46.284;13.126;2022-10-16T01:49:20;30.52;;;18.42;;
41530;SDS011;58990;46.284;13.126;2022-10-16T01:51:49;32.25;;;17.67;;
41530;SDS011;58990;46.284;13.126;2022-10-16T01:56:45;34.60;;;18.48;;
41530;SDS011;58990;46.284;13.126;2022-10-16T01:59:13;32.22;;;18.50;;
41530;SDS011;58990;46.284;13.126;2022-10-16T02:01:43;29.38;;;17.23;;
41530;SDS011;58990;46.284;13.126;2022-10-16T02:04:17;36.38;;;19.05;;
41530;SDS011;58990;46.284;13.126;2022-10-16T02:06:47;33.33;;;19.23;;
41530;SDS011;58990;46.284;13.126;2022-10-16T02:09:12;34.08;;;19.73;;
41530;SDS011;58990;46.284;13.126;2022-10-16T02:11:40;34.85;;;18.98;;
41530;SDS011;58990;46.284;13.126;2022-10-16T02:14:06;34.00;;;19.90;;
41530;SDS011;58990;46.284;13.126;2022-10-16T02:16:33;34.90;;;19.67;;
41530;SDS011;58990;46.284;13.126;2022-10-16T02:19:00;34.15;;;19.52;;
41530;SDS011;58990;46.284;13.126;2022-10-16T02:21:27;34.15;;;17.58;;
41530;SDS011;58990;46.284;13.126;2022-10-16T02:39:38;32.67;;;18.52;;
41530;SDS011;58990;46.284;13.126;2022-10-16T02:42:09;33.33;;;18.88;;
41530;SDS011;58990;46.284;13.126;2022-10-16T02:44:37;32.88;;;16.92;;
41530;SDS011;58990;46.284;13.126;2022-10-16T02:47:02;31.13;;;18.80;;
41530;SDS011;58990;46.284;13.126;2022-10-16T02:49:28;32.63;;;18.77;;
41530;SDS011;58990;46.284;13.126;2022-10-16T02:51:53;31.67;;;19.42;;
41530;SDS011;58990;46.284;13.126;2022-10-16T02:54:18;31.23;;;18.05;;
41530;SDS011;58990;46.284;13.126;2022-10-16T02:56:44;30.92;;;17.80;;
41530;SDS011;58990;46.284;13.126;2022-10-16T02:59:09;34.92;;;17.52;;
41530;SDS011;58990;46.284;13.126;2022-10-16T03:01:35;31.50;;;18.35;;
41530;SDS011;58990;46.284;13.126;2022-10-16T03:04:00;34.95;;;18.23;;
41530;SDS011;58990;46.284;13.126;2022-10-16T03:06:26;34.88;;;18.88;;
41530;SDS011;58990;46.284;13.126;2022-10-16T03:08:51;32.90;;;17.98;;
41530;SDS011;58990;46.284;13.126;2022-10-16T03:11:16;31.30;;;19.35;;
41530;SDS011;58990;46.284;13.126;2022-10-16T03:13:42;32.33;;;19.13;;
41530;SDS011;58990;46.284;13.126;2022-10-16T03:16:07;34.03;;;19.23;;
41530;SDS011;58990;46.284;13.126;2022-10-16T03:18:33;33.15;;;18.17;;
41530;SDS011;58990;46.284;13.126;2022-10-16T03:20:58;36.97;;;20.33;;
41530;SDS011;58990;46.284;13.126;2022-10-16T03:23:23;32.97;;;18.92;;
41530;SDS011;58990;46.284;13.126;2022-10-16T03:25:49;32.05;;;18.40;;
41530;SDS011;58990;46.284;13.126;2022-10-16T03:28:14;36.05;;;19.40;;
41530;SDS011;58990;46.284;13.126;2022-10-16T03:30:39;35.47;;;19.45;;
41530;SDS011;58990;46.284;13.126;2022-10-16T03:33:05;32.00;;;18.27;;
41530;SDS011;58990;46.284;13.126;2022-10-16T03:35:31;34.75;;;19.10;;
41530;SDS011;58990;46.284;13.126;2022-10-16T03:37:57;31.30;;;17.60;;
41530;SDS011;58990;46.284;13.126;2022-10-16T03:40:23;30.95;;;18.23;;
41530;SDS011;58990;46.284;13.126;2022-10-16T03:42:48;34.70;;;17.63;;
41530;SDS011;58990;46.284;13.126;2022-10-16T03:45:13;32.95;;;18.95;;
41530;SDS011;58990;46.284;13.126;2022-10-16T03:47:39;32.78;;;19.15;;
41530;SDS011;58990;46.284;13.126;2022-10-16T03:50:04;38.10;;;20.73;;
41530;SDS011;58990;46.284;13.126;2022-10-16T03:52:30;31.25;;;18.65;;
41530;SDS011;58990;46.284;13.126;2022-10-16T03:54:57;35.65;;;19.35;;
41530;SDS011;58990;46.284;13.126;2022-10-16T03:57:22;31.48;;;17.95;;
41530;SDS011;58990;46.284;13.126;2022-10-16T03:59:48;33.88;;;18.30;;
41530;SDS011;58990;46.284;13.126;2022-10-16T04:02:13;30.50;;;17.63;;
41530;SDS011;58990;46.284;13.126;2022-10-16T04:04:38;33.92;;;19.33;;
41530;SDS011;58990;46.284;13.126;2022-10-16T04:07:04;32.03;;;19.75;;
41530;SDS011;58990;46.284;13.126;2022-10-16T04:09:29;32.95;;;18.50;;
41530;SDS011;58990;46.284;13.126;2022-10-16T04:11:55;32.10;;;19.33;;
41530;SDS011;58990;46.284;13.126;2022-10-16T04:14:20;36.83;;;21.15;;
41530;SDS011;58990;46.284;13.126;2022-10-16T04:16:46;36.63;;;18.90;;
41530;SDS011;58990;46.284;13.126;2022-10-16T04:19:11;33.35;;;18.90;;
41530;SDS011;58990;46.284;13.126;2022-10-16T04:21:37;28.63;;;17.80;;
41530;SDS011;58990;46.284;13.126;2022-10-16T04:24:02;32.22;;;18.00;;
41530;SDS011;58990;46.284;13.126;2022-10-16T04:26:28;32.38;;;17.60;;
41530;SDS011;58990;46.284;13.126;2022-10-16T04:28:54;32.33;;;19.65;;
41530;SDS011;58990;46.284;13.126;2022-10-16T04:31:19;32.15;;;18.10;;
41530;SDS011;58990;46.284;13.126;2022-10-16T04:33:45;33.95;;;19.17;;
41530;SDS011;58990;46.284;13.126;2022-10-16T04:36:11;31.33;;;18.88;;
41530;SDS011;58990;46.284;13.126;2022-10-16T04:38:36;29.00;;;17.90;;
41530;SDS011;58990;46.284;13.126;2022-10-16T04:41:02;32.08;;;17.42;;
41530;SDS011;58990;46.284;13.126;2022-10-16T04:43:29;28.70;;;16.90;;
41530;SDS011;58990;46.284;13.126;2022-10-16T04:45:54;31.52;;;17.75;;
41530;SDS011;58990;46.284;13.126;2022-10-16T04:48:21;32.22;;;18.23;;
41530;SDS011;58990;46.284;13.126;2022-10-16T04:50:47;33.15;;;18.77;;
41530;SDS011;58990;46.284;13.126;2022-10-16T04:53:12;36.20;;;16.73;;
41530;SDS011;58990;46.284;13.126;2022-10-16T04:55:38;29.45;;;16.70;;
41530;SDS011;58990;46.284;13.126;2022-10-16T04:58:03;37.13;;;19.52;;
41530;SDS011;58990;46.284;13.126;2022-10-16T05:00:29;31.85;;;17.80;;
41530;SDS011;58990;46.284;13.126;2022-10-16T05:02:54;33.15;;;19.02;;
41530;SDS011;58990;46.284;13.126;2022-10-16T05:05:20;31.85;;;17.33;;
41530;SDS011;58990;46.284;13.126;2022-10-16T05:07:46;32.30;;;18.40;;
41530;SDS011;58990;46.284;13.126;2022-10-16T05:10:12;32.97;;;17.80;;
41530;SDS011;58990;46.284;13.126;2022-10-16T05:12:37;32.53;;;18.85;;
41530;SDS011;58990;46.284;13.126;2022-10-16T05:15:03;32.20;;;17.83;;
41530;SDS011;58990;46.284;13.126;2022-10-16T05:17:29;32.63;;;18.33;;
41530;SDS011;58990;46.284;13.126;2022-10-16T05:19:54;31.38;;;18.73;;
41530;SDS011;58990;46.284;13.126;2022-10-16T05:22:20;35.72;;;20.23;;
41530;SDS011;58990;46.284;13.126;2022-10-16T05:24:45;29.55;;;17.52;;
41530;SDS011;58990;46.284;13.126;2022-10-16T05:27:11;30.00;;;17.25;;
41530;SDS011;58990;46.284;13.126;2022-10-16T05:29:43;30.83;;;17.85;;
41530;SDS011;58990;46.284;13.126;2022-10-16T05:32:13;34.78;;;18.65;;
41530;SDS011;58990;46.284;13.126;2022-10-16T05:34:43;34.53;;;19.00;;
41530;SDS011;58990;46.284;13.126;2022-10-16T05:37:08;30.67;;;17.58;;
41530;SDS011;58990;46.284;13.126;2022-10-16T05:39:34;32.63;;;17.58;;
41530;SDS011;58990;46.284;13.126;2022-10-16T05:42:01;31.85;;;17.45;;
41530;SDS011;58990;46.284;13.126;2022-10-16T05:44:27;34.08;;;18.02;;
41530;SDS011;58990;46.284;13.126;2022-10-16T05:46:52;35.35;;;19.40;;
41530;SDS011;58990;46.284;13.126;2022-10-16T05:49:18;34.20;;;19.38;;
41530;SDS011;58990;46.284;13.126;2022-10-16T05:51:43;33.17;;;18.70;;
41530;SDS011;58990;46.284;13.126;2022-10-16T05:54:09;31.67;;;18.25;;
41530;SDS011;58990;46.284;13.126;2022-10-16T05:56:34;32.80;;;17.40;;
41530;SDS011;58990;46.284;13.126;2022-10-16T05:58:59;30.48;;;17.90;;
41530;SDS011;58990;46.284;13.126;2022-10-16T06:01:25;36.28;;;17.77;;
41530;SDS011;58990;46.284;13.126;2022-10-16T06:03:51;31.15;;;18.48;;
41530;SDS011;58990;46.284;13.126;2022-10-16T06:06:19;31.63;;;18.42;;
41530;SDS011;58990;46.284;13.126;2022-10-16T06:08:47;28.45;;;17.92;;
41530;SDS011;58990;46.284;13.126;2022-10-16T06:11:15;30.00;;;17.92;;
41530;SDS011;58990;46.284;13.126;2022-10-16T06:13:42;32.63;;;17.95;;
41530;SDS011;58990;46.284;13.126;2022-10-16T06:16:08;32.50;;;18.15;;
41530;SDS011;58990;46.284;13.126;2022-10-16T06:18:35;29.65;;;17.52;;
41530;SDS011;58990;46.284;13.126;2022-10-16T06:21:06;30.13;;;17.10;;
41530;SDS011;58990;46.284;13.126;2022-10-16T06:23:32;31.80;;;18.10;;
41530;SDS011;58990;46.284;13.126;2022-10-16T06:26:05;30.08;;;16.08;;
41530;SDS011;58990;46.284;13.126;2022-10-16T06:28:35;30.90;;;16.90;;
41530;SDS011;58990;46.284;13.126;2022-10-16T06:31:00;31.77;;;17.63;;
41530;SDS011;58990;46.284;13.126;2022-10-16T06:33:27;30.58;;;17.40;;
41530;SDS011;58990;46.284;13.126;2022-10-16T06:35:53;29.48;;;16.77;;
41530;SDS011;58990;46.284;13.126;2022-10-16T06:38:18;33.13;;;17.77;;
41530;SDS011;58990;46.284;13.126;2022-10-16T06:40:43;27.20;;;16.10;;
41530;SDS011;58990;46.284;13.126;2022-10-16T06:43:09;34.15;;;16.58;;
41530;SDS011;58990;46.284;13.126;2022-10-16T06:45:34;29.67;;;16.23;;
41530;SDS011;58990;46.284;13.126;2022-10-16T06:47:59;30.63;;;17.27;;
41530;SDS011;58990;46.284;13.126;2022-10-16T06:50:25;30.45;;;17.73;;
41530;SDS011;58990;46.284;13.126;2022-10-16T06:52:50;31.60;;;17.50;;
41530;SDS011;58990;46.284;13.126;2022-10-16T06:55:16;28.50;;;16.05;;
41530;SDS011;58990;46.284;13.126;2022-10-16T06:57:42;26.58;;;15.80;;
41530;SDS011;58990;46.284;13.126;2022-10-16T07:00:08;26.92;;;16.00;;
41530;SDS011;58990;46.284;13.126;2022-10-16T07:02:34;27.08;;;15.30;;
41530;SDS011;58990;46.284;13.126;2022-10-16T07:04:59;25.77;;;14.88;;
41530;SDS011;58990;46.284;13.126;2022-10-16T07:07:25;24.83;;;15.65;;
41530;SDS011;58990;46.284;13.126;2022-10-16T07:09:51;26.23;;;16.02;;
41530;SDS011;58990;46.284;13.126;2022-10-16T07:12:17;24.05;;;15.27;;
41530;SDS011;58990;46.284;13.126;2022-10-16T07:14:43;26.23;;;15.40;;
41530;SDS011;58990;46.284;13.126;2022-10-16T07:17:08;22.52;;;14.38;;
41530;SDS011;58990;46.284;13.126;2022-10-16T07:19:33;25.10;;;15.18;;
41530;SDS011;58990;46.284;13.126;2022-10-16T07:21:59;23.80;;;14.73;;
41530;SDS011;58990;46.284;13.126;2022-10-16T07:24:24;24.05;;;15.77;;
41530;SDS011;58990;46.284;13.126;2022-10-16T07:26:50;21.55;;;14.27;;
41530;SDS011;58990;46.284;13.126;2022-10-16T07:29:19;21.50;;;13.68;;
41530;SDS011;58990;46.284;13.126;2022-10-16T07:31:46;21.35;;;14.10;;
41530;SDS011;58990;46.284;13.126;2022-10-16T07:34:13;20.85;;;14.82;;
41530;SDS011;58990;46.284;13.126;2022-10-16T07:36:40;21.52;;;14.30;;
41530;SDS011;58990;46.284;13.126;2022-10-16T07:39:06;25.20;;;14.07;;
41530;SDS011;58990;46.284;13.126;2022-10-16T07:41:32;20.58;;;14.18;;
41530;SDS011;58990;46.284;13.126;2022-10-16T07:43:58;20.05;;;14.00;;
41530;SDS011;58990;46.284;13.126;2022-10-16T07:46:27;23.92;;;15.20;;
41530;SDS011;58990;46.284;13.126;2022-10-16T07:48:53;21.50;;;14.65;;
41530;SDS011;58990;46.284;13.126;2022-10-16T07:51:20;21.50;;;14.40;;
41530;SDS011;58990;46.284;13.126;2022-10-16T07:53:47;20.30;;;14.10;;
41530;SDS011;58990;46.284;13.126;2022-10-16T07:56:12;21.20;;;14.77;;
41530;SDS011;58990;46.284;13.126;2022-10-16T07:58:38;22.25;;;14.75;;
41530;SDS011;58990;46.284;13.126;2022-10-16T08:01:05;21.67;;;14.07;;
41530;SDS011;58990;46.284;13.126;2022-10-16T08:03:32;21.10;;;14.52;;
41530;SDS011;58990;46.284;13.126;2022-10-16T08:05:58;19.83;;;13.77;;
41530;SDS011;58990;46.284;13.126;2022-10-16T08:08:24;23.33;;;15.45;;
41530;SDS011;58990;46.284;13.126;2022-10-16T08:10:49;23.33;;;14.18;;
41530;SDS011;58990;46.284;13.126;2022-10-16T08:13:15;20.30;;;14.43;;
41530;SDS011;58990;46.284;13.126;2022-10-16T08:15:41;20.85;;;13.95;;
41530;SDS011;58990;46.284;13.126;2022-10-16T08:18:08;21.15;;;14.57;;
41530;SDS011;58990;46.284;13.126;2022-10-16T08:20:34;22.65;;;14.25;;
41530;SDS011;58990;46.284;13.126;2022-10-16T08:23:00;23.23;;;15.13;;
41530;SDS011;58990;46.284;13.126;2022-10-16T08:25:26;21.38;;;14.27;;
41530;SDS011;58990;46.284;13.126;2022-10-16T08:27:52;20.70;;;15.07;;
41530;SDS011;58990;46.284;13.126;2022-10-16T08:30:18;21.98;;;15.00;;
41530;SDS011;58990;46.284;13.126;2022-10-16T08:32:45;21.35;;;14.23;;
41530;SDS011;58990;46.284;13.126;2022-10-16T08:35:10;22.35;;;15.60;;
41530;SDS011;58990;46.284;13.126;2022-10-16T08:37:37;21.77;;;14.27;;
41530;SDS011;58990;46.284;13.126;2022-10-16T08:40:04;21.15;;;14.30;;
41530;SDS011;58990;46.284;13.126;2022-10-16T08:55:42;24.95;;;14.43;;
41530;SDS011;58990;46.284;13.126;2022-10-16T08:58:19;20.95;;;14.50;;
41530;SDS011;58990;46.284;13.126;2022-10-16T09:00:47;25.88;;;15.02;;
41530;SDS011;58990;46.284;13.126;2022-10-16T09:03:28;26.50;;;16.15;;
41530;SDS011;58990;46.284;13.126;2022-10-16T09:37:32;31.90;;;19.70;;
41530;SDS011;58990;46.284;13.126;2022-10-16T09:39:58;28.80;;;18.75;;
41530;SDS011;58990;46.284;13.126;2022-10-16T09:42:26;30.27;;;19.27;;
41530;SDS011;58990;46.284;13.126;2022-10-16T09:44:56;28.77;;;19.10;;
41530;SDS011;58990;46.284;13.126;2022-10-16T09:47:29;30.65;;;19.83;;
41530;SDS011;58990;46.284;13.126;2022-10-16T09:49:57;32.38;;;19.25;;
41530;SDS011;58990;46.284;13.126;2022-10-16T09:52:27;30.60;;;19.23;;
41530;SDS011;58990;46.284;13.126;2022-10-16T09:54:54;34.20;;;20.63;;
41530;SDS011;58990;46.284;13.126;2022-10-16T09:57:21;31.77;;;20.13;;
41530;SDS011;58990;46.284;13.126;2022-10-16T09:59:51;32.88;;;20.10;;
41530;SDS011;58990;46.284;13.126;2022-10-16T10:02:21;34.67;;;21.42;;
41530;SDS011;58990;46.284;13.126;2022-10-16T10:04:54;33.22;;;20.48;;
41530;SDS011;58990;46.284;13.126;2022-10-16T10:07:23;34.10;;;21.13;;
41530;SDS011;58990;46.284;13.126;2022-10-16T10:09:51;32.50;;;21.27;;
41530;SDS011;58990;46.284;13.126;2022-10-16T10:12:25;29.00;;;19.67;;
41530;SDS011;58990;46.284;13.126;2022-10-16T10:14:52;31.58;;;19.58;;
41530;SDS011;58990;46.284;13.126;2022-10-16T10:17:21;32.53;;;21.48;;
41530;SDS011;58990;46.284;13.126;2022-10-16T11:09:58;36.58;;;22.85;;
41530;SDS011;58990;46.284;13.126;2022-10-16T11:12:51;38.53;;;21.83;;
41530;SDS011;58990;46.284;13.126;2022-10-16T11:15:31;33.28;;;22.63;;
41530;SDS011;58990;46.284;13.126;2022-10-16T11:18:07;38.60;;;22.88;;
41530;SDS011;58990;46.284;13.126;2022-10-16T11:21:00;36.55;;;22.83;;
41530;SDS011;58990;46.284;13.126;2022-10-16T11:23:31;42.63;;;24.33;;
41530;SDS011;58990;46.284;13.126;2022-10-16T11:26:04;38.33;;;23.60;;
41530;SDS011;58990;46.284;13.126;2022-10-16T11:28:37;38.10;;;22.77;;
41530;SDS011;58990;46.284;13.126;2022-10-16T11:31:26;37.13;;;21.85;;
41530;SDS011;58990;46.284;13.126;2022-10-16T12:10:20;32.97;;;20.52;;
41530;SDS011;58990;46.284;13.126;2022-10-16T12:12:53;39.35;;;22.42;;
41530;SDS011;58990;46.284;13.126;2022-10-16T12:15:26;35.92;;;21.10;;
41530;SDS011;58990;46.284;13.126;2022-10-16T12:17:54;32.78;;;19.95;;
41530;SDS011;58990;46.284;13.126;2022-10-16T12:20:25;37.13;;;21.42;;
41530;SDS011;58990;46.284;13.126;2022-10-16T13:33:03;35.75;;;20.85;;
41530;SDS011;58990;46.284;13.126;2022-10-16T13:40:58;41.95;;;23.88;;
41530;SDS011;58990;46.284;13.126;2022-10-16T13:49:14;47.13;;;25.13;;
41530;SDS011;58990;46.284;13.126;2022-10-16T14:17:33;43.55;;;23.65;;
41530;SDS011;58990;46.284;13.126;2022-10-16T14:20:20;41.22;;;22.92;;
41530;SDS011;58990;46.284;13.126;2022-10-16T14:25:34;44.25;;;25.27;;
41530;SDS011;58990;46.284;13.126;2022-10-16T14:28:37;45.80;;;25.05;;
41530;SDS011;58990;46.284;13.126;2022-10-16T14:33:40;41.38;;;23.98;;
41530;SDS011;58990;46.284;13.126;2022-10-16T14:36:11;43.03;;;25.27;;
41530;SDS011;58990;46.284;13.126;2022-10-16T14:38:39;45.15;;;25.73;;
41530;SDS011;58990;46.284;13.126;2022-10-16T14:41:22;46.13;;;24.52;;
41530;SDS011;58990;46.284;13.126;2022-10-16T14:46:34;44.70;;;24.88;;
41530;SDS011;58990;46.284;13.126;2022-10-16T15:04:57;43.90;;;23.60;;
41530;SDS011;58990;46.284;13.126;2022-10-16T15:07:26;46.70;;;25.55;;
41530;SDS011;58990;46.284;13.126;2022-10-16T15:15:09;42.92;;;23.63;;
41530;SDS011;58990;46.284;13.126;2022-10-16T15:23:28;45.30;;;25.08;;
41530;SDS011;58990;46.284;13.126;2022-10-16T15:33:39;47.30;;;26.65;;
41530;SDS011;58990;46.284;13.126;2022-10-16T15:38:39;47.45;;;24.90;;
41530;SDS011;58990;46.284;13.126;2022-10-16T15:41:05;53.80;;;26.65;;
41530;SDS011;58990;46.284;13.126;2022-10-16T15:43:30;42.03;;;24.38;;
41530;SDS011;58990;46.284;13.126;2022-10-16T15:51:06;45.03;;;25.33;;
41530;SDS011;58990;46.284;13.126;2022-10-16T15:53:33;43.65;;;24.10;;
41530;SDS011;58990;46.284;13.126;2022-10-16T15:56:01;44.63;;;25.20;;
41530;SDS011;58990;46.284;13.126;2022-10-16T15:58:27;45.50;;;25.08;;
41530;SDS011;58990;46.284;13.126;2022-10-16T16:00:55;43.20;;;24.38;;
41530;SDS011;58990;46.284;13.126;2022-10-16T16:03:22;43.45;;;23.92;;
41530;SDS011;58990;46.284;13.126;2022-10-16T16:05:48;41.70;;;24.50;;
41530;SDS011;58990;46.284;13.126;2022-10-16T16:08:13;41.60;;;24.10;;
41530;SDS011;58990;46.284;13.126;2022-10-16T16:10:39;43.58;;;24.05;;
41530;SDS011;58990;46.284;13.126;2022-10-16T16:13:04;43.13;;;23.40;;
41530;SDS011;58990;46.284;13.126;2022-10-16T16:15:29;41.67;;;23.13;;
41530;SDS011;58990;46.284;13.126;2022-10-16T16:17:55;43.63;;;24.42;;
41530;SDS011;58990;46.284;13.126;2022-10-16T16:20:20;40.78;;;22.95;;
41530;SDS011;58990;46.284;13.126;2022-10-16T16:22:46;41.13;;;23.48;;
41530;SDS011;58990;46.284;13.126;2022-10-16T16:25:11;41.38;;;23.23;;
41530;SDS011;58990;46.284;13.126;2022-10-16T16:27:37;40.90;;;24.77;;
41530;SDS011;58990;46.284;13.126;2022-10-16T16:30:03;39.08;;;23.02;;
41530;SDS011;58990;46.284;13.126;2022-10-16T16:32:32;49.08;;;25.40;;
41530;SDS011;58990;46.284;13.126;2022-10-16T16:34:58;46.47;;;26.10;;
41530;SDS011;58990;46.284;13.126;2022-10-16T16:37:23;46.25;;;24.35;;
41530;SDS011;58990;46.284;13.126;2022-10-16T16:39:48;43.72;;;24.02;;
41530;SDS011;58990;46.284;13.126;2022-10-16T16:42:14;42.67;;;23.88;;
41530;SDS011;58990;46.284;13.126;2022-10-16T16:44:39;42.95;;;25.10;;
41530;SDS011;58990;46.284;13.126;2022-10-16T16:47:05;43.65;;;24.45;;
41530;SDS011;58990;46.284;13.126;2022-10-16T16:49:31;43.10;;;22.70;;
41530;SDS011;58990;46.284;13.126;2022-10-16T16:51:56;43.83;;;22.75;;
41530;SDS011;58990;46.284;13.126;2022-10-16T16:54:22;43.28;;;23.83;;
41530;SDS011;58990;46.284;13.126;2022-10-16T16:56:47;37.67;;;22.15;;
41530;SDS011;58990;46.284;13.126;2022-10-16T16:59:13;41.33;;;23.08;;
41530;SDS011;58990;46.284;13.126;2022-10-16T17:01:41;43.67;;;23.10;;
41530;SDS011;58990;46.284;13.126;2022-10-16T17:04:07;45.65;;;23.75;;
41530;SDS011;58990;46.284;13.126;2022-10-16T17:06:33;44.80;;;23.92;;
41530;SDS011;58990;46.284;13.126;2022-10-16T17:09:00;39.78;;;22.45;;
41530;SDS011;58990;46.284;13.126;2022-10-16T17:11:27;40.50;;;22.98;;
41530;SDS011;58990;46.284;13.126;2022-10-16T17:13:54;38.97;;;22.58;;
41530;SDS011;58990;46.284;13.126;2022-10-16T17:16:21;36.42;;;22.48;;
41530;SDS011;58990;46.284;13.126;2022-10-16T17:18:48;38.65;;;21.95;;
41530;SDS011;58990;46.284;13.126;2022-10-16T17:21:13;45.67;;;24.15;;
41530;SDS011;58990;46.284;13.126;2022-10-16T17:23:38;38.55;;;22.40;;
41530;SDS011;58990;46.284;13.126;2022-10-16T17:26:08;36.67;;;21.90;;
41530;SDS011;58990;46.284;13.126;2022-10-16T17:28:36;38.13;;;21.83;;
41530;SDS011;58990;46.284;13.126;2022-10-16T17:31:09;39.42;;;21.23;;
41530;SDS011;58990;46.284;13.126;2022-10-16T17:33:59;44.20;;;22.48;;
41530;SDS011;58990;46.284;13.126;2022-10-16T17:36:26;36.08;;;21.00;;
41530;SDS011;58990;46.284;13.126;2022-10-16T17:38:56;39.40;;;22.47;;
41530;SDS011;58990;46.284;13.126;2022-10-16T17:41:24;37.17;;;22.00;;
41530;SDS011;58990;46.284;13.126;2022-10-16T17:43:50;35.90;;;21.70;;
41530;SDS011;58990;46.284;13.126;2022-10-16T17:46:17;36.47;;;21.38;;
41530;SDS011;58990;46.284;13.126;2022-10-16T17:48:45;34.38;;;21.15;;
41530;SDS011;58990;46.284;13.126;2022-10-16T17:51:13;36.08;;;20.83;;
41530;SDS011;58990;46.284;13.126;2022-10-16T17:53:40;38.45;;;21.83;;
41530;SDS011;58990;46.284;13.126;2022-10-16T17:56:07;36.08;;;20.75;;
41530;SDS011;58990;46.284;13.126;2022-10-16T17:58:35;35.17;;;20.15;;
41530;SDS011;58990;46.284;13.126;2022-10-16T18:01:01;35.28;;;19.95;;
41530;SDS011;58990;46.284;13.126;2022-10-16T18:03:35;35.03;;;20.08;;
41530;SDS011;58990;46.284;13.126;2022-10-16T18:06:00;35.95;;;21.00;;
41530;SDS011;58990;46.284;13.126;2022-10-16T18:08:26;37.00;;;19.98;;
41530;SDS011;58990;46.284;13.126;2022-10-16T18:10:51;33.05;;;20.83;;
41530;SDS011;58990;46.284;13.126;2022-10-16T18:13:16;38.05;;;21.05;;
41530;SDS011;58990;46.284;13.126;2022-10-16T18:15:42;33.63;;;19.13;;
41530;SDS011;58990;46.284;13.126;2022-10-16T18:18:08;37.22;;;20.77;;
41530;SDS011;58990;46.284;13.126;2022-10-16T18:20:34;36.63;;;20.30;;
41530;SDS011;58990;46.284;13.126;2022-10-16T18:22:59;38.88;;;20.90;;
41530;SDS011;58990;46.284;13.126;2022-10-16T18:25:25;36.50;;;21.25;;
41530;SDS011;58990;46.284;13.126;2022-10-16T18:27:51;39.90;;;21.58;;
41530;SDS011;58990;46.284;13.126;2022-10-16T18:30:16;44.53;;;22.75;;
41530;SDS011;58990;46.284;13.126;2022-10-16T18:32:41;41.10;;;22.55;;
41530;SDS011;58990;46.284;13.126;2022-10-16T18:35:07;38.92;;;21.88;;
41530;SDS011;58990;46.284;13.126;2022-10-16T18:37:36;41.33;;;23.00;;
41530;SDS011;58990;46.284;13.126;2022-10-16T18:40:02;43.90;;;23.20;;
41530;SDS011;58990;46.284;13.126;2022-10-16T18:42:28;43.72;;;24.05;;
41530;SDS011;58990;46.284;13.126;2022-10-16T18:44:54;40.53;;;22.63;;
41530;SDS011;58990;46.284;13.126;2022-10-16T18:47:20;41.72;;;22.95;;
41530;SDS011;58990;46.284;13.126;2022-10-16T18:49:47;42.70;;;24.08;;
41530;SDS011;58990;46.284;13.126;2022-10-16T18:52:14;41.90;;;23.10;;
41530;SDS011;58990;46.284;13.126;2022-10-16T18:54:39;41.45;;;23.42;;
41530;SDS011;58990;46.284;13.126;2022-10-16T18:57:05;44.42;;;23.25;;
41530;SDS011;58990;46.284;13.126;2022-10-16T18:59:30;41.85;;;20.92;;
41530;SDS011;58990;46.284;13.126;2022-10-16T19:01:56;43.35;;;23.85;;
41530;SDS011;58990;46.284;13.126;2022-10-16T19:04:22;38.85;;;23.23;;
41530;SDS011;58990;46.284;13.126;2022-10-16T19:06:48;38.03;;;22.13;;
41530;SDS011;58990;46.284;13.126;2022-10-16T19:09:17;41.70;;;22.75;;
41530;SDS011;58990;46.284;13.126;2022-10-16T19:11:44;45.22;;;23.08;;
41530;SDS011;58990;46.284;13.126;2022-10-16T19:14:10;41.50;;;22.95;;
41530;SDS011;58990;46.284;13.126;2022-10-16T19:16:36;45.03;;;22.60;;
41530;SDS011;58990;46.284;13.126;2022-10-16T19:19:03;38.75;;;22.83;;
41530;SDS011;58990;46.284;13.126;2022-10-16T19:21:33;39.58;;;22.15;;
41530;SDS011;58990;46.284;13.126;2022-10-16T19:24:00;47.83;;;23.27;;
41530;SDS011;58990;46.284;13.126;2022-10-16T19:26:27;42.17;;;22.25;;
41530;SDS011;58990;46.284;13.126;2022-10-16T19:28:54;41.83;;;23.42;;
41530;SDS011;58990;46.284;13.126;2022-10-16T19:31:22;43.22;;;23.92;;
41530;SDS011;58990;46.284;13.126;2022-10-16T19:33:51;46.78;;;24.05;;
41530;SDS011;58990;46.284;13.126;2022-10-16T19:36:22;43.05;;;24.02;;
41530;SDS011;58990;46.284;13.126;2022-10-16T19:38:52;39.55;;;22.83;;
41530;SDS011;58990;46.284;13.126;2022-10-16T19:43:45;41.15;;;23.17;;
41530;SDS011;58990;46.284;13.126;2022-10-16T19:46:12;45.13;;;22.95;;
41530;SDS011;58990;46.284;13.126;2022-10-16T19:48:41;37.40;;;22.27;;